Shaktoolik, AK

11:08 PM AKST on February 24, 2017 (GMT -0900)
Unalakleet | | Change Station
Active Advisory: Winter Storm Warning

Elev 20 ft 63.89 °N, 160.80 °W | Updated 12 minutes ago

Overcast
Overcast
31 °F
Feels Like 22 °F
N
12
Wind Variable Wind from SW

Today
High -- | Low -- °F
--% Chance of Precip.
Yesterday
High -- | Low -- °F
Precip. -- in
Pressure 30.39 in
Visibility 10.0 miles
Clouds Overcast 4600 ft
Windchill 22 °F
Dew Point 28 °F
Humidity 89%
Rainfall 0.00 in
Snow Depth Not available.
9:05 AM 6:48 PM
Waning Crescent, 2% visible
METAR PAUN 250756Z AUTO 22010KT 10SM OVC046 M01/M02 A3038 RMK AO2 UPE0658 SLP290 P0000 T10061022 FZRANO $
Pressure 30.39 in
Visibility 10.0 miles
Clouds Overcast 4600 ft
Windchill 22 °F
Dew Point 28 °F
Humidity 89%
Rainfall 0.00 in
Snow Depth Not available.
9:05 AM 6:48 PM
Waning Crescent, 2% visible
METAR PAUN 250756Z AUTO 22010KT 10SM OVC046 M01/M02 A3038 RMK AO2 UPE0658 SLP290 P0000 T10061022 FZRANO $

Get Your Daily Forecast Email!

Thanks for signing up!

Be on the lookout for a verification email in your inbox.

You'll start receiving the daily forecast at 8 AM.

×

10-Day Weather Forecast

Almanac

Astronomy

Feb. 24, 2017 Rise Set
Actual Time
Civil Twilight
Nautical Twilight
Astronomical Twilight
Moon
Length of Visible Light
Length of Day
Tomorrow will be .
, % of the Moon is Illuminated

Today's Extremes

State Highs State Lows

Community

WunderPhotos

Upload Photos

1,962,540 photos uploaded!

WunderBlog® & News

Nearby

Air Quality

  Air Quality AQ Index Pollutant
Not available.

Snow Depth

Station Depth Elevation

Earthquake Activity

City Distance Mag. Time & Date
Minimum magnitude displayed is 2.5.

Coastal Water Temperatures

Place Temperature

Stations

Nearby Weather Stations

Station Location Temp. Windchill Dew Point Humidity Wind Precip. Elev Updated Type
                   

Watches & Warnings

Winter Storm Warning
Issued: 1:54 PM AKST Feb. 24, 2017 – National Weather Service

... Winter Storm Warning remains in effect until 6 am akst
Sunday...

* location... north of Unalakleet.

* Snow... total snow accumulation 8 to 18 inches through Sunday
morning.

* Blowing snow... reducing visibility to one half mile or less at
times.

* Winds... east 15 to 30 mph gusting to 45 mph.

* Timing... snow heavy at times will continue through Sunday
morning. The strongest winds and lowest visibilities are
expected Saturday.

* Impacts... visibility may be greatly reduced. Travel and
outdoor activities will be difficult.

Precautionary/preparedness actions...

A Winter Storm Warning means one or more significant winter
weather hazards are occurring or expected.